Aérodrome :
LOGIN :

S'inscrire | Disclaimer

   EN    FR    IT 

 










Légende :    VFR   VFR Marginal   IFR   IFR Intensif   IFR Très Intensif
Visi : 
Plafond : 
>= 8 km
>= 3000ft
5 à 8 km
1000 à 3000 ft
1500m à 5 km
500 à 1000 ft
800 à 1500m
200 à 500 ft
< 800m
< 200 ft
Symboles :   Orages  Brouillard  Fortes neiges  Fortes précipitations  Vent > 20 kt
SIGMETs :   Divers  Orages  Givrage  Turbulence  Onde Orograph.  Cendres Volcan.






- Altitude de l'aérodrome : 14 ft
- Code IATA : BRE


EDDW - Bremen Neuenland

DERNIER METAR :
  • 291450Z AUTO 33010G22KT 280V010 CAVOK 17/06 Q1025 NOSIG

METARs EXPIRÉS :
  • 291420Z AUTO 32010KT 300V010 CAVOK 17/06 Q1025 NOSIG
  • 291350Z AUTO 35009KT 290V050 CAVOK 17/06 Q1025 NOSIG
  • 291320Z AUTO 32011KT 290V010 CAVOK 17/07 Q1025 NOSIG
  • 291250Z AUTO 36011KT 320V030 CAVOK 17/07 Q1025 NOSIG
  • 291220Z AUTO 33010KT 270V010 CAVOK 16/07 Q1025 NOSIG

TAF TAF EDDW
Valide du 29 à 12h jusqu'au 30 à 12h UTC


291100Z 2912/3012 33013KT CAVOK
PROB30
TEMPO 2914/2918 34015G25KT
BECMG 2921/2923 32007KT
BECMG 3003/3005 BKN013
PROB30
TEMPO 3004/3007 BKN009
BECMG 3007/3009 BKN025



MET'MAP, la Météo Aéronautique d'un coup d'oeil ! - Copyright ORBIFLY Décembre 2007 - Disclaimer

ORBIFLY MET'MAP TEAM :

Programmation & Développement : Alexandra Zaïnal
Sur une idée originale de : Baudouin d'Aumeries
Soutien technique & logistique : Manuel Goepfert
Assistance : Marc-Olivier Méhu




SOURCES & CREDITS :

   NOAA